FR-0033 weather

Public forecast

Using degrees Celsius for public forecast. Weather courtesy of forecast.io.

Closest aviation weather report (METAR) to Centre Hospitalier Heliport

Closest report is Nevers-Fourchambault Airport, 41.7 nm (77.2 km) WSW. Retrieved 2020/08/15 18:00 UTC (58 minutes ago):

LFQG 151800Z AUTO 33007KT CAVOK 28/12 Q1012

Closest aviation forecast (TAF) to Centre Hospitalier Heliport

Forecast is more than 12 hours old.

Closest forecast is Dijon-Bourgogne Airport, 41.7 nm (77.3 km) E. Retrieved 2015/06/01 00:11 UTC (5 years ago):

TAF LFSD 010600Z 0100/0124 CNL